sensor_id;sensor_type;location;lat;lon;timestamp;P1;durP1;ratioP1;P2;durP2;ratioP2
78120;SDS011;67585;44.802;10.332;2023-03-01T00:02:03;23.60;;;8.02;;
78120;SDS011;67585;44.802;10.332;2023-03-01T00:04:30;20.92;;;9.75;;
78120;SDS011;67585;44.802;10.332;2023-03-01T00:06:56;22.83;;;8.93;;
78120;SDS011;67585;44.802;10.332;2023-03-01T00:09:21;19.55;;;8.52;;
78120;SDS011;67585;44.802;10.332;2023-03-01T00:11:47;22.38;;;8.10;;
78120;SDS011;67585;44.802;10.332;2023-03-01T00:14:12;20.98;;;7.65;;
78120;SDS011;67585;44.802;10.332;2023-03-01T00:16:39;23.23;;;7.13;;
78120;SDS011;67585;44.802;10.332;2023-03-01T00:19:10;20.80;;;7.85;;
78120;SDS011;67585;44.802;10.332;2023-03-01T00:21:43;19.90;;;7.80;;
78120;SDS011;67585;44.802;10.332;2023-03-01T00:24:09;20.65;;;6.38;;
78120;SDS011;67585;44.802;10.332;2023-03-01T00:26:35;18.70;;;6.63;;
78120;SDS011;67585;44.802;10.332;2023-03-01T00:29:01;22.83;;;6.57;;
78120;SDS011;67585;44.802;10.332;2023-03-01T00:31:27;15.50;;;4.95;;
78120;SDS011;67585;44.802;10.332;2023-03-01T00:33:54;17.23;;;5.15;;
78120;SDS011;67585;44.802;10.332;2023-03-01T00:36:22;20.63;;;5.28;;
78120;SDS011;67585;44.802;10.332;2023-03-01T00:38:48;13.32;;;3.63;;
78120;SDS011;67585;44.802;10.332;2023-03-01T00:41:15;17.27;;;5.20;;
78120;SDS011;67585;44.802;10.332;2023-03-01T00:43:42;14.70;;;5.70;;
78120;SDS011;67585;44.802;10.332;2023-03-01T00:46:09;16.27;;;5.25;;
78120;SDS011;67585;44.802;10.332;2023-03-01T00:48:37;14.13;;;4.53;;
78120;SDS011;67585;44.802;10.332;2023-03-01T00:51:13;15.48;;;5.22;;
78120;SDS011;67585;44.802;10.332;2023-03-01T00:53:43;15.52;;;4.65;;
78120;SDS011;67585;44.802;10.332;2023-03-01T00:56:10;15.10;;;5.18;;
78120;SDS011;67585;44.802;10.332;2023-03-01T00:58:37;16.48;;;4.85;;
78120;SDS011;67585;44.802;10.332;2023-03-01T01:01:10;16.73;;;4.95;;
78120;SDS011;67585;44.802;10.332;2023-03-01T01:06:17;14.52;;;5.13;;
78120;SDS011;67585;44.802;10.332;2023-03-01T01:08:45;15.95;;;5.32;;
78120;SDS011;67585;44.802;10.332;2023-03-01T01:11:11;15.25;;;5.57;;
78120;SDS011;67585;44.802;10.332;2023-03-01T01:13:37;13.52;;;4.60;;
78120;SDS011;67585;44.802;10.332;2023-03-01T01:16:04;17.50;;;5.30;;
78120;SDS011;67585;44.802;10.332;2023-03-01T01:18:30;15.90;;;4.90;;
78120;SDS011;67585;44.802;10.332;2023-03-01T01:20:55;15.68;;;5.28;;
78120;SDS011;67585;44.802;10.332;2023-03-01T01:23:21;17.73;;;5.20;;
78120;SDS011;67585;44.802;10.332;2023-03-01T01:25:46;15.10;;;6.43;;
78120;SDS011;67585;44.802;10.332;2023-03-01T01:28:12;17.42;;;5.60;;
78120;SDS011;67585;44.802;10.332;2023-03-01T01:30:37;20.25;;;5.28;;
78120;SDS011;67585;44.802;10.332;2023-03-01T01:33:02;13.27;;;4.47;;
78120;SDS011;67585;44.802;10.332;2023-03-01T01:35:28;18.33;;;5.25;;
78120;SDS011;67585;44.802;10.332;2023-03-01T01:37:53;12.70;;;5.28;;
78120;SDS011;67585;44.802;10.332;2023-03-01T01:40:19;15.57;;;5.15;;
78120;SDS011;67585;44.802;10.332;2023-03-01T01:42:44;16.80;;;5.55;;
78120;SDS011;67585;44.802;10.332;2023-03-01T01:45:42;11.48;;;3.88;;
78120;SDS011;67585;44.802;10.332;2023-03-01T01:48:10;14.23;;;6.20;;
78120;SDS011;67585;44.802;10.332;2023-03-01T01:50:39;12.95;;;4.38;;
78120;SDS011;67585;44.802;10.332;2023-03-01T01:53:07;13.85;;;4.75;;
78120;SDS011;67585;44.802;10.332;2023-03-01T01:55:35;13.88;;;4.65;;
78120;SDS011;67585;44.802;10.332;2023-03-01T01:58:06;19.88;;;6.28;;
78120;SDS011;67585;44.802;10.332;2023-03-01T02:00:35;13.20;;;5.07;;
78120;SDS011;67585;44.802;10.332;2023-03-01T02:03:13;16.52;;;5.93;;
78120;SDS011;67585;44.802;10.332;2023-03-01T02:06:03;11.10;;;4.40;;
78120;SDS011;67585;44.802;10.332;2023-03-01T02:08:37;12.27;;;4.82;;
78120;SDS011;67585;44.802;10.332;2023-03-01T02:11:04;11.75;;;5.18;;
78120;SDS011;67585;44.802;10.332;2023-03-01T02:13:31;15.63;;;5.93;;
78120;SDS011;67585;44.802;10.332;2023-03-01T02:15:58;10.88;;;4.30;;
78120;SDS011;67585;44.802;10.332;2023-03-01T02:18:23;16.25;;;4.82;;
78120;SDS011;67585;44.802;10.332;2023-03-01T02:23:21;18.58;;;5.78;;
78120;SDS011;67585;44.802;10.332;2023-03-01T02:28:33;15.85;;;6.05;;
78120;SDS011;67585;44.802;10.332;2023-03-01T02:31:00;14.30;;;4.85;;
78120;SDS011;67585;44.802;10.332;2023-03-01T02:33:46;14.00;;;4.63;;
78120;SDS011;67585;44.802;10.332;2023-03-01T02:36:15;16.33;;;5.45;;
78120;SDS011;67585;44.802;10.332;2023-03-01T02:38:43;14.55;;;5.20;;
78120;SDS011;67585;44.802;10.332;2023-03-01T02:41:10;13.52;;;4.75;;
78120;SDS011;67585;44.802;10.332;2023-03-01T02:43:38;16.02;;;5.47;;
78120;SDS011;67585;44.802;10.332;2023-03-01T02:46:14;9.82;;;3.40;;
78120;SDS011;67585;44.802;10.332;2023-03-01T02:48:45;13.40;;;4.78;;
78120;SDS011;67585;44.802;10.332;2023-03-01T02:56:53;14.15;;;5.13;;
78120;SDS011;67585;44.802;10.332;2023-03-01T02:59:20;16.77;;;6.15;;
78120;SDS011;67585;44.802;10.332;2023-03-01T03:01:49;14.75;;;4.80;;
78120;SDS011;67585;44.802;10.332;2023-03-01T03:04:16;15.27;;;4.95;;
78120;SDS011;67585;44.802;10.332;2023-03-01T03:06:46;15.63;;;5.07;;
78120;SDS011;67585;44.802;10.332;2023-03-01T03:09:13;15.20;;;5.25;;
78120;SDS011;67585;44.802;10.332;2023-03-01T03:11:39;15.85;;;5.20;;
78120;SDS011;67585;44.802;10.332;2023-03-01T03:14:06;17.13;;;5.72;;
78120;SDS011;67585;44.802;10.332;2023-03-01T03:16:39;12.23;;;4.70;;
78120;SDS011;67585;44.802;10.332;2023-03-01T03:19:08;15.93;;;5.72;;
78120;SDS011;67585;44.802;10.332;2023-03-01T03:21:34;16.83;;;4.80;;
78120;SDS011;67585;44.802;10.332;2023-03-01T03:24:00;19.48;;;5.50;;
78120;SDS011;67585;44.802;10.332;2023-03-01T03:26:25;16.40;;;6.78;;
78120;SDS011;67585;44.802;10.332;2023-03-01T03:28:51;12.90;;;5.30;;
78120;SDS011;67585;44.802;10.332;2023-03-01T03:31:17;15.85;;;5.32;;
78120;SDS011;67585;44.802;10.332;2023-03-01T03:33:42;12.80;;;5.30;;
78120;SDS011;67585;44.802;10.332;2023-03-01T03:36:08;17.05;;;4.43;;
78120;SDS011;67585;44.802;10.332;2023-03-01T03:38:37;16.20;;;5.38;;
78120;SDS011;67585;44.802;10.332;2023-03-01T03:41:06;17.20;;;5.60;;
78120;SDS011;67585;44.802;10.332;2023-03-01T03:43:33;15.18;;;5.20;;
78120;SDS011;67585;44.802;10.332;2023-03-01T03:46:01;17.85;;;5.63;;
78120;SDS011;67585;44.802;10.332;2023-03-01T03:48:31;12.80;;;4.60;;
78120;SDS011;67585;44.802;10.332;2023-03-01T03:50:58;13.65;;;6.07;;
78120;SDS011;67585;44.802;10.332;2023-03-01T03:53:25;13.55;;;5.00;;
78120;SDS011;67585;44.802;10.332;2023-03-01T03:55:52;12.07;;;4.50;;
78120;SDS011;67585;44.802;10.332;2023-03-01T03:58:19;14.40;;;4.20;;
78120;SDS011;67585;44.802;10.332;2023-03-01T04:00:46;14.70;;;5.05;;
78120;SDS011;67585;44.802;10.332;2023-03-01T04:03:13;13.85;;;4.10;;
78120;SDS011;67585;44.802;10.332;2023-03-01T04:05:40;15.15;;;5.05;;
78120;SDS011;67585;44.802;10.332;2023-03-01T04:08:06;14.57;;;5.40;;
78120;SDS011;67585;44.802;10.332;2023-03-01T04:10:34;16.88;;;5.68;;
78120;SDS011;67585;44.802;10.332;2023-03-01T04:13:02;15.35;;;5.55;;
78120;SDS011;67585;44.802;10.332;2023-03-01T04:15:29;14.60;;;4.60;;
78120;SDS011;67585;44.802;10.332;2023-03-01T04:17:55;17.60;;;5.75;;
78120;SDS011;67585;44.802;10.332;2023-03-01T04:20:25;15.73;;;5.32;;
78120;SDS011;67585;44.802;10.332;2023-03-01T04:23:35;15.52;;;4.88;;
78120;SDS011;67585;44.802;10.332;2023-03-01T04:28:14;16.08;;;4.45;;
78120;SDS011;67585;44.802;10.332;2023-03-01T04:30:40;13.30;;;5.43;;
78120;SDS011;67585;44.802;10.332;2023-03-01T04:33:06;14.45;;;5.57;;
78120;SDS011;67585;44.802;10.332;2023-03-01T04:35:34;15.90;;;4.70;;
78120;SDS011;67585;44.802;10.332;2023-03-01T04:38:01;14.98;;;4.78;;
78120;SDS011;67585;44.802;10.332;2023-03-01T04:40:26;16.55;;;5.38;;
78120;SDS011;67585;44.802;10.332;2023-03-01T04:42:52;15.38;;;6.18;;
78120;SDS011;67585;44.802;10.332;2023-03-01T04:45:17;15.85;;;5.82;;
78120;SDS011;67585;44.802;10.332;2023-03-01T04:47:43;13.75;;;5.05;;
78120;SDS011;67585;44.802;10.332;2023-03-01T04:52:37;13.73;;;4.40;;
78120;SDS011;67585;44.802;10.332;2023-03-01T04:55:03;12.77;;;4.60;;
78120;SDS011;67585;44.802;10.332;2023-03-01T04:57:29;17.67;;;5.57;;
78120;SDS011;67585;44.802;10.332;2023-03-01T04:59:54;10.70;;;4.30;;
78120;SDS011;67585;44.802;10.332;2023-03-01T05:02:20;19.58;;;5.30;;
78120;SDS011;67585;44.802;10.332;2023-03-01T05:04:45;14.52;;;5.10;;
78120;SDS011;67585;44.802;10.332;2023-03-01T05:07:11;13.77;;;4.38;;
78120;SDS011;67585;44.802;10.332;2023-03-01T05:09:38;15.30;;;5.00;;
78120;SDS011;67585;44.802;10.332;2023-03-01T05:12:03;13.75;;;4.60;;
78120;SDS011;67585;44.802;10.332;2023-03-01T05:14:29;14.90;;;4.93;;
78120;SDS011;67585;44.802;10.332;2023-03-01T05:16:54;18.60;;;5.18;;
78120;SDS011;67585;44.802;10.332;2023-03-01T05:19:20;15.40;;;5.38;;
78120;SDS011;67585;44.802;10.332;2023-03-01T05:21:47;13.75;;;4.53;;
78120;SDS011;67585;44.802;10.332;2023-03-01T05:24:32;13.50;;;5.30;;
78120;SDS011;67585;44.802;10.332;2023-03-01T05:27:00;15.05;;;6.57;;
78120;SDS011;67585;44.802;10.332;2023-03-01T05:29:27;15.70;;;5.43;;
78120;SDS011;67585;44.802;10.332;2023-03-01T05:31:54;18.05;;;5.53;;
78120;SDS011;67585;44.802;10.332;2023-03-01T05:34:28;18.88;;;5.72;;
78120;SDS011;67585;44.802;10.332;2023-03-01T05:36:55;15.32;;;6.30;;
78120;SDS011;67585;44.802;10.332;2023-03-01T05:39:21;16.25;;;5.93;;
78120;SDS011;67585;44.802;10.332;2023-03-01T05:41:48;15.80;;;5.55;;
78120;SDS011;67585;44.802;10.332;2023-03-01T05:44:17;16.25;;;6.07;;
78120;SDS011;67585;44.802;10.332;2023-03-01T05:46:42;14.18;;;5.80;;
78120;SDS011;67585;44.802;10.332;2023-03-01T05:49:08;16.27;;;6.43;;
78120;SDS011;67585;44.802;10.332;2023-03-01T05:51:33;18.75;;;6.18;;
78120;SDS011;67585;44.802;10.332;2023-03-01T05:53:59;21.58;;;6.10;;
78120;SDS011;67585;44.802;10.332;2023-03-01T05:56:24;16.83;;;6.25;;
78120;SDS011;67585;44.802;10.332;2023-03-01T05:58:50;18.52;;;6.55;;
78120;SDS011;67585;44.802;10.332;2023-03-01T06:01:15;14.15;;;5.20;;
78120;SDS011;67585;44.802;10.332;2023-03-01T06:03:41;14.27;;;4.80;;
78120;SDS011;67585;44.802;10.332;2023-03-01T06:06:06;15.82;;;5.53;;
78120;SDS011;67585;44.802;10.332;2023-03-01T06:08:32;17.30;;;7.03;;
78120;SDS011;67585;44.802;10.332;2023-03-01T06:10:57;18.90;;;5.93;;
78120;SDS011;67585;44.802;10.332;2023-03-01T06:13:23;16.65;;;6.38;;
78120;SDS011;67585;44.802;10.332;2023-03-01T06:15:49;23.80;;;6.97;;
78120;SDS011;67585;44.802;10.332;2023-03-01T06:18:14;17.67;;;6.20;;
78120;SDS011;67585;44.802;10.332;2023-03-01T06:20:40;17.50;;;6.82;;
78120;SDS011;67585;44.802;10.332;2023-03-01T06:23:05;17.75;;;6.47;;
78120;SDS011;67585;44.802;10.332;2023-03-01T06:25:31;19.48;;;5.95;;
78120;SDS011;67585;44.802;10.332;2023-03-01T06:27:57;17.48;;;6.50;;
78120;SDS011;67585;44.802;10.332;2023-03-01T06:30:23;17.52;;;6.50;;
78120;SDS011;67585;44.802;10.332;2023-03-01T06:32:50;16.80;;;6.07;;
78120;SDS011;67585;44.802;10.332;2023-03-01T06:35:16;17.27;;;5.97;;
78120;SDS011;67585;44.802;10.332;2023-03-01T06:37:42;11.55;;;3.05;;
78120;SDS011;67585;44.802;10.332;2023-03-01T06:40:09;13.75;;;4.95;;
78120;SDS011;67585;44.802;10.332;2023-03-01T06:42:36;16.20;;;6.00;;
78120;SDS011;67585;44.802;10.332;2023-03-01T06:45:04;20.00;;;7.25;;
78120;SDS011;67585;44.802;10.332;2023-03-01T06:47:31;20.27;;;7.05;;
78120;SDS011;67585;44.802;10.332;2023-03-01T06:49:58;16.58;;;6.70;;
78120;SDS011;67585;44.802;10.332;2023-03-01T06:52:23;16.58;;;6.57;;
78120;SDS011;67585;44.802;10.332;2023-03-01T06:54:49;18.33;;;6.28;;
78120;SDS011;67585;44.802;10.332;2023-03-01T06:57:14;20.23;;;6.13;;
78120;SDS011;67585;44.802;10.332;2023-03-01T06:59:40;19.30;;;7.03;;
78120;SDS011;67585;44.802;10.332;2023-03-01T07:02:05;19.90;;;6.57;;
78120;SDS011;67585;44.802;10.332;2023-03-01T07:04:31;19.00;;;6.43;;
78120;SDS011;67585;44.802;10.332;2023-03-01T07:06:56;18.80;;;7.65;;
78120;SDS011;67585;44.802;10.332;2023-03-01T07:09:22;16.80;;;7.05;;
78120;SDS011;67585;44.802;10.332;2023-03-01T07:11:49;18.55;;;5.88;;
78120;SDS011;67585;44.802;10.332;2023-03-01T07:14:15;16.27;;;5.80;;
78120;SDS011;67585;44.802;10.332;2023-03-01T07:16:41;17.48;;;5.85;;
78120;SDS011;67585;44.802;10.332;2023-03-01T07:19:06;19.05;;;5.60;;
78120;SDS011;67585;44.802;10.332;2023-03-01T07:21:31;18.20;;;6.80;;
78120;SDS011;67585;44.802;10.332;2023-03-01T07:23:57;17.48;;;5.97;;
78120;SDS011;67585;44.802;10.332;2023-03-01T07:26:22;17.17;;;6.05;;
78120;SDS011;67585;44.802;10.332;2023-03-01T07:28:48;18.00;;;5.72;;
78120;SDS011;67585;44.802;10.332;2023-03-01T07:31:13;15.98;;;5.03;;
78120;SDS011;67585;44.802;10.332;2023-03-01T07:33:39;14.20;;;4.95;;
78120;SDS011;67585;44.802;10.332;2023-03-01T07:36:04;19.67;;;5.85;;
78120;SDS011;67585;44.802;10.332;2023-03-01T07:38:31;20.95;;;6.20;;
78120;SDS011;67585;44.802;10.332;2023-03-01T07:41:00;19.27;;;6.50;;
78120;SDS011;67585;44.802;10.332;2023-03-01T07:43:28;16.50;;;6.28;;
78120;SDS011;67585;44.802;10.332;2023-03-01T07:45:54;15.27;;;5.68;;
78120;SDS011;67585;44.802;10.332;2023-03-01T07:48:19;14.85;;;6.07;;
78120;SDS011;67585;44.802;10.332;2023-03-01T07:50:44;15.48;;;5.18;;
78120;SDS011;67585;44.802;10.332;2023-03-01T07:53:10;17.10;;;5.25;;
78120;SDS011;67585;44.802;10.332;2023-03-01T07:55:36;13.27;;;5.00;;
78120;SDS011;67585;44.802;10.332;2023-03-01T07:58:01;17.63;;;6.63;;
78120;SDS011;67585;44.802;10.332;2023-03-01T08:00:27;18.25;;;6.45;;
78120;SDS011;67585;44.802;10.332;2023-03-01T08:02:52;18.15;;;5.90;;
78120;SDS011;67585;44.802;10.332;2023-03-01T08:05:18;17.92;;;6.57;;
78120;SDS011;67585;44.802;10.332;2023-03-01T08:07:43;14.60;;;6.55;;
78120;SDS011;67585;44.802;10.332;2023-03-01T08:10:09;14.88;;;4.97;;
78120;SDS011;67585;44.802;10.332;2023-03-01T08:12:35;17.10;;;6.88;;
78120;SDS011;67585;44.802;10.332;2023-03-01T08:15:00;17.58;;;5.72;;
78120;SDS011;67585;44.802;10.332;2023-03-01T08:17:26;18.70;;;5.70;;
78120;SDS011;67585;44.802;10.332;2023-03-01T08:19:51;16.52;;;4.68;;
78120;SDS011;67585;44.802;10.332;2023-03-01T08:22:16;17.17;;;5.43;;
78120;SDS011;67585;44.802;10.332;2023-03-01T08:24:42;16.80;;;5.85;;
78120;SDS011;67585;44.802;10.332;2023-03-01T08:27:07;17.98;;;5.40;;
78120;SDS011;67585;44.802;10.332;2023-03-01T08:29:33;19.67;;;5.95;;
78120;SDS011;67585;44.802;10.332;2023-03-01T08:31:59;14.18;;;4.28;;
78120;SDS011;67585;44.802;10.332;2023-03-01T08:34:24;15.40;;;5.07;;
78120;SDS011;67585;44.802;10.332;2023-03-01T08:36:51;15.70;;;5.65;;
78120;SDS011;67585;44.802;10.332;2023-03-01T08:39:17;16.40;;;5.05;;
78120;SDS011;67585;44.802;10.332;2023-03-01T08:41:44;13.02;;;4.65;;
78120;SDS011;67585;44.802;10.332;2023-03-01T08:44:10;12.73;;;5.18;;
78120;SDS011;67585;44.802;10.332;2023-03-01T08:46:37;15.07;;;5.13;;
78120;SDS011;67585;44.802;10.332;2023-03-01T08:49:08;14.27;;;4.45;;
78120;SDS011;67585;44.802;10.332;2023-03-01T08:51:36;17.90;;;5.97;;
78120;SDS011;67585;44.802;10.332;2023-03-01T08:54:04;17.67;;;5.95;;
78120;SDS011;67585;44.802;10.332;2023-03-01T08:56:30;14.90;;;4.10;;
78120;SDS011;67585;44.802;10.332;2023-03-01T08:58:56;17.60;;;5.53;;
78120;SDS011;67585;44.802;10.332;2023-03-01T09:01:21;15.48;;;4.88;;
78120;SDS011;67585;44.802;10.332;2023-03-01T09:03:47;17.80;;;5.30;;
78120;SDS011;67585;44.802;10.332;2023-03-01T09:06:12;19.45;;;5.63;;
78120;SDS011;67585;44.802;10.332;2023-03-01T09:08:43;15.68;;;4.68;;
78120;SDS011;67585;44.802;10.332;2023-03-01T09:11:11;14.82;;;5.93;;
78120;SDS011;67585;44.802;10.332;2023-03-01T09:13:38;15.63;;;6.03;;
78120;SDS011;67585;44.802;10.332;2023-03-01T09:16:05;14.70;;;5.60;;
78120;SDS011;67585;44.802;10.332;2023-03-01T09:18:32;14.88;;;5.22;;
78120;SDS011;67585;44.802;10.332;2023-03-01T09:21:05;15.40;;;5.32;;
78120;SDS011;67585;44.802;10.332;2023-03-01T09:23:34;15.80;;;4.75;;
78120;SDS011;67585;44.802;10.332;2023-03-01T09:26:04;13.82;;;4.32;;
78120;SDS011;67585;44.802;10.332;2023-03-01T09:28:31;14.68;;;5.30;;
78120;SDS011;67585;44.802;10.332;2023-03-01T09:31:00;14.10;;;4.63;;
78120;SDS011;67585;44.802;10.332;2023-03-01T09:33:27;16.77;;;5.18;;
78120;SDS011;67585;44.802;10.332;2023-03-01T09:38:22;13.40;;;4.30;;
78120;SDS011;67585;44.802;10.332;2023-03-01T09:40:48;17.75;;;5.15;;
78120;SDS011;67585;44.802;10.332;2023-03-01T09:43:23;18.48;;;6.22;;
78120;SDS011;67585;44.802;10.332;2023-03-01T09:46:08;13.85;;;4.47;;
78120;SDS011;67585;44.802;10.332;2023-03-01T09:48:52;15.00;;;4.28;;
78120;SDS011;67585;44.802;10.332;2023-03-01T09:51:32;12.82;;;3.22;;
78120;SDS011;67585;44.802;10.332;2023-03-01T09:54:01;15.85;;;4.97;;
78120;SDS011;67585;44.802;10.332;2023-03-01T09:56:36;17.23;;;5.32;;
78120;SDS011;67585;44.802;10.332;2023-03-01T10:01:45;15.18;;;4.85;;
78120;SDS011;67585;44.802;10.332;2023-03-01T10:10:28;12.73;;;3.92;;
78120;SDS011;67585;44.802;10.332;2023-03-01T10:12:58;15.63;;;3.72;;
78120;SDS011;67585;44.802;10.332;2023-03-01T10:15:39;13.95;;;3.72;;
78120;SDS011;67585;44.802;10.332;2023-03-01T10:18:13;15.30;;;3.90;;
78120;SDS011;67585;44.802;10.332;2023-03-01T10:21:00;12.20;;;4.18;;
78120;SDS011;67585;44.802;10.332;2023-03-01T10:23:28;9.70;;;3.83;;
78120;SDS011;67585;44.802;10.332;2023-03-01T10:31:38;12.85;;;4.80;;
78120;SDS011;67585;44.802;10.332;2023-03-01T10:37:08;11.90;;;3.35;;
78120;SDS011;67585;44.802;10.332;2023-03-01T10:39:34;12.15;;;4.28;;
78120;SDS011;67585;44.802;10.332;2023-03-01T10:42:04;9.68;;;4.10;;
78120;SDS011;67585;44.802;10.332;2023-03-01T10:47:12;10.93;;;2.60;;
78120;SDS011;67585;44.802;10.332;2023-03-01T10:49:48;12.80;;;3.38;;
78120;SDS011;67585;44.802;10.332;2023-03-01T10:52:25;12.40;;;3.75;;
78120;SDS011;67585;44.802;10.332;2023-03-01T10:55:02;10.80;;;3.60;;
78120;SDS011;67585;44.802;10.332;2023-03-01T10:57:42;10.65;;;3.20;;
78120;SDS011;67585;44.802;10.332;2023-03-01T11:05:23;11.75;;;3.67;;
78120;SDS011;67585;44.802;10.332;2023-03-01T11:10:17;12.07;;;2.88;;
78120;SDS011;67585;44.802;10.332;2023-03-01T11:12:47;11.00;;;2.90;;
78120;SDS011;67585;44.802;10.332;2023-03-01T11:15:26;14.02;;;3.50;;
78120;SDS011;67585;44.802;10.332;2023-03-01T11:17:53;13.30;;;3.15;;
78120;SDS011;67585;44.802;10.332;2023-03-01T11:23:05;10.35;;;3.40;;
78120;SDS011;67585;44.802;10.332;2023-03-01T11:25:36;10.23;;;3.30;;
78120;SDS011;67585;44.802;10.332;2023-03-01T11:28:07;11.88;;;2.55;;
78120;SDS011;67585;44.802;10.332;2023-03-01T11:30:53;10.55;;;2.17;;
78120;SDS011;67585;44.802;10.332;2023-03-01T11:36:16;10.32;;;3.58;;
78120;SDS011;67585;44.802;10.332;2023-03-01T11:38:47;13.40;;;3.58;;
78120;SDS011;67585;44.802;10.332;2023-03-01T11:41:32;10.77;;;3.55;;
78120;SDS011;67585;44.802;10.332;2023-03-01T11:44:02;11.65;;;3.45;;
78120;SDS011;67585;44.802;10.332;2023-03-01T12:05:24;14.50;;;4.80;;
78120;SDS011;67585;44.802;10.332;2023-03-01T12:08:09;17.15;;;4.35;;
78120;SDS011;67585;44.802;10.332;2023-03-01T12:10:47;11.60;;;4.05;;
78120;SDS011;67585;44.802;10.332;2023-03-01T12:21:26;13.27;;;4.47;;
78120;SDS011;67585;44.802;10.332;2023-03-01T12:29:20;15.77;;;3.90;;
78120;SDS011;67585;44.802;10.332;2023-03-01T12:42:53;15.00;;;5.25;;
78120;SDS011;67585;44.802;10.332;2023-03-01T12:50:51;17.20;;;5.53;;
78120;SDS011;67585;44.802;10.332;2023-03-01T12:53:25;19.77;;;5.95;;
78120;SDS011;67585;44.802;10.332;2023-03-01T12:56:06;13.95;;;4.45;;
78120;SDS011;67585;44.802;10.332;2023-03-01T13:04:34;15.63;;;5.35;;
78120;SDS011;67585;44.802;10.332;2023-03-01T13:15:36;19.20;;;5.60;;
78120;SDS011;67585;44.802;10.332;2023-03-01T13:18:26;16.80;;;6.40;;
78120;SDS011;67585;44.802;10.332;2023-03-01T13:20:55;14.18;;;5.10;;
78120;SDS011;67585;44.802;10.332;2023-03-01T13:23:25;14.05;;;5.93;;
78120;SDS011;67585;44.802;10.332;2023-03-01T13:31:10;16.15;;;5.70;;
78120;SDS011;67585;44.802;10.332;2023-03-01T13:33:49;14.88;;;5.35;;
78120;SDS011;67585;44.802;10.332;2023-03-01T13:49:36;12.98;;;4.57;;
78120;SDS011;67585;44.802;10.332;2023-03-01T13:54:52;16.48;;;5.55;;
78120;SDS011;67585;44.802;10.332;2023-03-01T13:57:21;13.75;;;4.70;;
78120;SDS011;67585;44.802;10.332;2023-03-01T13:59:50;13.50;;;4.93;;
78120;SDS011;67585;44.802;10.332;2023-03-01T14:02:16;21.52;;;5.60;;
78120;SDS011;67585;44.802;10.332;2023-03-01T14:04:41;15.18;;;5.20;;
78120;SDS011;67585;44.802;10.332;2023-03-01T14:07:20;18.23;;;5.57;;
78120;SDS011;67585;44.802;10.332;2023-03-01T14:09:52;17.55;;;5.75;;
78120;SDS011;67585;44.802;10.332;2023-03-01T14:14:54;17.58;;;6.03;;
78120;SDS011;67585;44.802;10.332;2023-03-01T14:20:09;18.58;;;6.35;;
78120;SDS011;67585;44.802;10.332;2023-03-01T14:22:40;14.63;;;4.15;;
78120;SDS011;67585;44.802;10.332;2023-03-01T14:25:19;12.80;;;4.53;;
78120;SDS011;67585;44.802;10.332;2023-03-01T14:27:44;15.52;;;6.20;;
78120;SDS011;67585;44.802;10.332;2023-03-01T14:30:20;17.80;;;5.85;;
78120;SDS011;67585;44.802;10.332;2023-03-01T14:32:53;18.45;;;4.88;;
78120;SDS011;67585;44.802;10.332;2023-03-01T14:35:24;15.02;;;5.55;;
78120;SDS011;67585;44.802;10.332;2023-03-01T14:37:51;17.95;;;5.53;;
78120;SDS011;67585;44.802;10.332;2023-03-01T14:40:27;17.42;;;6.47;;
78120;SDS011;67585;44.802;10.332;2023-03-01T14:43:08;17.35;;;5.90;;
78120;SDS011;67585;44.802;10.332;2023-03-01T14:45:36;15.20;;;5.30;;
78120;SDS011;67585;44.802;10.332;2023-03-01T14:48:02;14.77;;;5.45;;
78120;SDS011;67585;44.802;10.332;2023-03-01T14:50:31;18.20;;;5.88;;
78120;SDS011;67585;44.802;10.332;2023-03-01T14:52:59;16.75;;;5.03;;
78120;SDS011;67585;44.802;10.332;2023-03-01T14:57:52;18.90;;;5.78;;
78120;SDS011;67585;44.802;10.332;2023-03-01T15:00:20;15.57;;;5.63;;
78120;SDS011;67585;44.802;10.332;2023-03-01T15:02:49;15.70;;;5.30;;
78120;SDS011;67585;44.802;10.332;2023-03-01T15:05:18;15.50;;;5.55;;
78120;SDS011;67585;44.802;10.332;2023-03-01T15:07:50;16.67;;;5.20;;
78120;SDS011;67585;44.802;10.332;2023-03-01T15:10:19;15.45;;;5.85;;
78120;SDS011;67585;44.802;10.332;2023-03-01T15:12:47;14.68;;;5.13;;
78120;SDS011;67585;44.802;10.332;2023-03-01T15:15:46;15.13;;;6.00;;
78120;SDS011;67585;44.802;10.332;2023-03-01T15:18:13;17.92;;;6.25;;
78120;SDS011;67585;44.802;10.332;2023-03-01T15:20:44;16.63;;;4.93;;
78120;SDS011;67585;44.802;10.332;2023-03-01T15:23:24;18.23;;;5.82;;
78120;SDS011;67585;44.802;10.332;2023-03-01T15:25:50;15.43;;;6.38;;
78120;SDS011;67585;44.802;10.332;2023-03-01T15:28:28;19.05;;;5.75;;
78120;SDS011;67585;44.802;10.332;2023-03-01T15:31:01;18.50;;;5.53;;
78120;SDS011;67585;44.802;10.332;2023-03-01T15:33:28;17.00;;;5.88;;
78120;SDS011;67585;44.802;10.332;2023-03-01T15:36:00;13.25;;;5.35;;
78120;SDS011;67585;44.802;10.332;2023-03-01T15:38:53;21.63;;;7.25;;
78120;SDS011;67585;44.802;10.332;2023-03-01T15:41:25;16.58;;;6.00;;
78120;SDS011;67585;44.802;10.332;2023-03-01T15:43:51;15.77;;;6.05;;
78120;SDS011;67585;44.802;10.332;2023-03-01T15:46:27;17.55;;;5.40;;
78120;SDS011;67585;44.802;10.332;2023-03-01T15:48:55;17.02;;;5.57;;
78120;SDS011;67585;44.802;10.332;2023-03-01T15:51:27;20.38;;;5.57;;
78120;SDS011;67585;44.802;10.332;2023-03-01T15:53:58;17.02;;;5.32;;
78120;SDS011;67585;44.802;10.332;2023-03-01T15:56:25;15.32;;;4.82;;
78120;SDS011;67585;44.802;10.332;2023-03-01T15:58:51;14.18;;;5.43;;
78120;SDS011;67585;44.802;10.332;2023-03-01T16:01:16;15.90;;;4.93;;
78120;SDS011;67585;44.802;10.332;2023-03-01T16:03:42;14.48;;;5.30;;
78120;SDS011;67585;44.802;10.332;2023-03-01T16:06:09;14.57;;;5.60;;
78120;SDS011;67585;44.802;10.332;2023-03-01T16:08:35;15.77;;;5.95;;
78120;SDS011;67585;44.802;10.332;2023-03-01T16:11:01;17.30;;;5.07;;
78120;SDS011;67585;44.802;10.332;2023-03-01T16:13:30;14.73;;;5.95;;
78120;SDS011;67585;44.802;10.332;2023-03-01T16:15:56;19.20;;;6.85;;
78120;SDS011;67585;44.802;10.332;2023-03-01T16:18:22;13.38;;;6.45;;
78120;SDS011;67585;44.802;10.332;2023-03-01T16:20:47;17.20;;;5.45;;
78120;SDS011;67585;44.802;10.332;2023-03-01T16:23:14;17.20;;;5.75;;
78120;SDS011;67585;44.802;10.332;2023-03-01T16:25:40;17.02;;;5.03;;
78120;SDS011;67585;44.802;10.332;2023-03-01T16:28:06;15.38;;;5.82;;
78120;SDS011;67585;44.802;10.332;2023-03-01T16:30:36;12.93;;;3.90;;
78120;SDS011;67585;44.802;10.332;2023-03-01T16:33:02;16.60;;;4.90;;
78120;SDS011;67585;44.802;10.332;2023-03-01T16:35:31;20.55;;;5.00;;
78120;SDS011;67585;44.802;10.332;2023-03-01T16:37:57;14.05;;;5.45;;
78120;SDS011;67585;44.802;10.332;2023-03-01T16:40:25;17.13;;;5.22;;
78120;SDS011;67585;44.802;10.332;2023-03-01T16:42:53;19.55;;;6.28;;
78120;SDS011;67585;44.802;10.332;2023-03-01T16:45:20;15.48;;;6.05;;
78120;SDS011;67585;44.802;10.332;2023-03-01T16:47:45;15.57;;;5.88;;
78120;SDS011;67585;44.802;10.332;2023-03-01T16:50:11;17.42;;;6.60;;
78120;SDS011;67585;44.802;10.332;2023-03-01T16:52:36;16.02;;;5.38;;
78120;SDS011;67585;44.802;10.332;2023-03-01T16:55:03;12.57;;;4.57;;
78120;SDS011;67585;44.802;10.332;2023-03-01T16:57:30;15.60;;;4.90;;